sensor_id;sensor_type;location;lat;lon;timestamp;pressure;altitude;pressure_sealevel;temperature;humidity
32324;BME280;25666;44.350;9.222;2023-03-12T00:02:06;100549.78;;;10.54;100.00
32324;BME280;25666;44.350;9.222;2023-03-12T00:04:31;100545.88;;;10.43;100.00
32324;BME280;25666;44.350;9.222;2023-03-12T00:06:59;100558.56;;;10.56;100.00
32324;BME280;25666;44.350;9.222;2023-03-12T00:09:24;100549.50;;;10.59;100.00
32324;BME280;25666;44.350;9.222;2023-03-12T00:11:50;100556.34;;;10.62;100.00
32324;BME280;25666;44.350;9.222;2023-03-12T00:14:15;100556.97;;;10.55;100.00
32324;BME280;25666;44.350;9.222;2023-03-12T00:16:41;100557.53;;;10.61;100.00
32324;BME280;25666;44.350;9.222;2023-03-12T00:19:06;100554.13;;;10.40;100.00
32324;BME280;25666;44.350;9.222;2023-03-12T00:21:32;100554.25;;;10.31;100.00
32324;BME280;25666;44.350;9.222;2023-03-12T00:23:57;100555.50;;;10.46;100.00
32324;BME280;25666;44.350;9.222;2023-03-12T00:26:23;100558.84;;;10.51;100.00
32324;BME280;25666;44.350;9.222;2023-03-12T00:28:49;100559.19;;;10.50;100.00
32324;BME280;25666;44.350;9.222;2023-03-12T00:31:23;100571.66;;;10.28;100.00
32324;BME280;25666;44.350;9.222;2023-03-12T00:33:51;100574.91;;;10.30;100.00
32324;BME280;25666;44.350;9.222;2023-03-12T00:36:18;100571.25;;;10.14;100.00
32324;BME280;25666;44.350;9.222;2023-03-12T00:38:44;100580.59;;;10.09;100.00
32324;BME280;25666;44.350;9.222;2023-03-12T00:41:09;100591.16;;;10.04;100.00
32324;BME280;25666;44.350;9.222;2023-03-12T00:43:35;100589.78;;;9.98;100.00
32324;BME280;25666;44.350;9.222;2023-03-12T00:46:01;100585.16;;;10.02;100.00
32324;BME280;25666;44.350;9.222;2023-03-12T00:48:26;100595.09;;;10.15;100.00
32324;BME280;25666;44.350;9.222;2023-03-12T00:50:52;100585.16;;;10.02;100.00
32324;BME280;25666;44.350;9.222;2023-03-12T00:53:17;100592.78;;;10.05;100.00
32324;BME280;25666;44.350;9.222;2023-03-12T00:55:43;100601.03;;;9.65;100.00
32324;BME280;25666;44.350;9.222;2023-03-12T00:58:08;100608.59;;;9.64;100.00
32324;BME280;25666;44.350;9.222;2023-03-12T01:00:34;100614.47;;;9.63;100.00
32324;BME280;25666;44.350;9.222;2023-03-12T01:02:59;100614.84;;;9.61;100.00
32324;BME280;25666;44.350;9.222;2023-03-12T01:05:25;100626.28;;;9.72;100.00
32324;BME280;25666;44.350;9.222;2023-03-12T01:07:50;100621.06;;;9.46;100.00
32324;BME280;25666;44.350;9.222;2023-03-12T01:10:17;100623.38;;;9.44;100.00
32324;BME280;25666;44.350;9.222;2023-03-12T01:12:44;100619.59;;;9.49;100.00
32324;BME280;25666;44.350;9.222;2023-03-12T01:15:13;100625.59;;;9.51;100.00
32324;BME280;25666;44.350;9.222;2023-03-12T01:17:39;100634.38;;;9.53;100.00
32324;BME280;25666;44.350;9.222;2023-03-12T01:20:05;100627.69;;;9.66;100.00
32324;BME280;25666;44.350;9.222;2023-03-12T01:22:33;100635.75;;;9.47;100.00
32324;BME280;25666;44.350;9.222;2023-03-12T01:24:58;100645.72;;;9.48;100.00
32324;BME280;25666;44.350;9.222;2023-03-12T01:27:24;100635.19;;;9.53;100.00
32324;BME280;25666;44.350;9.222;2023-03-12T01:29:49;100626.16;;;9.56;100.00
32324;BME280;25666;44.350;9.222;2023-03-12T01:32:15;100627.69;;;9.54;100.00
32324;BME280;25666;44.350;9.222;2023-03-12T01:34:42;100628.94;;;9.56;100.00
32324;BME280;25666;44.350;9.222;2023-03-12T01:37:08;100619.22;;;9.75;100.00
32324;BME280;25666;44.350;9.222;2023-03-12T01:39:33;100603.13;;;9.80;100.00
32324;BME280;25666;44.350;9.222;2023-03-12T01:41:59;100608.00;;;9.83;100.00
32324;BME280;25666;44.350;9.222;2023-03-12T01:44:25;100613.53;;;9.71;100.00
32324;BME280;25666;44.350;9.222;2023-03-12T01:46:50;100626.63;;;9.46;100.00
32324;BME280;25666;44.350;9.222;2023-03-12T01:49:29;100622.94;;;9.54;100.00
32324;BME280;25666;44.350;9.222;2023-03-12T01:52:08;100629.38;;;9.34;100.00
32324;BME280;25666;44.350;9.222;2023-03-12T01:55:03;100627.56;;;9.50;100.00
32324;BME280;25666;44.350;9.222;2023-03-12T01:57:46;100626.41;;;9.63;100.00
32324;BME280;25666;44.350;9.222;2023-03-12T02:00:20;100625.59;;;9.39;100.00
32324;BME280;25666;44.350;9.222;2023-03-12T02:02:48;100629.88;;;9.36;100.00
32324;BME280;25666;44.350;9.222;2023-03-12T02:05:37;100644.22;;;9.38;100.00
32324;BME280;25666;44.350;9.222;2023-03-12T02:08:09;100655.56;;;9.45;100.00
32324;BME280;25666;44.350;9.222;2023-03-12T02:10:35;100658.00;;;9.59;100.00
32324;BME280;25666;44.350;9.222;2023-03-12T02:13:00;100661.69;;;9.39;100.00
32324;BME280;25666;44.350;9.222;2023-03-12T02:15:26;100664.38;;;9.47;100.00
32324;BME280;25666;44.350;9.222;2023-03-12T02:17:52;100651.19;;;9.56;100.00
32324;BME280;25666;44.350;9.222;2023-03-12T02:20:33;100659.41;;;9.65;100.00
32324;BME280;25666;44.350;9.222;2023-03-12T02:23:09;100670.56;;;9.77;100.00
32324;BME280;25666;44.350;9.222;2023-03-12T02:25:40;100664.06;;;9.85;100.00
32324;BME280;25666;44.350;9.222;2023-03-12T02:28:11;100666.94;;;9.89;100.00
32324;BME280;25666;44.350;9.222;2023-03-12T02:30:39;100666.84;;;9.85;100.00
32324;BME280;25666;44.350;9.222;2023-03-12T02:33:08;100678.41;;;9.87;100.00
32324;BME280;25666;44.350;9.222;2023-03-12T02:35:34;100676.00;;;9.86;100.00
32324;BME280;25666;44.350;9.222;2023-03-12T02:38:00;100681.06;;;9.84;100.00
32324;BME280;25666;44.350;9.222;2023-03-12T02:40:41;100680.28;;;9.83;100.00
32324;BME280;25666;44.350;9.222;2023-03-12T02:43:09;100686.34;;;9.52;100.00
32324;BME280;25666;44.350;9.222;2023-03-12T02:45:35;100698.16;;;9.49;100.00
32324;BME280;25666;44.350;9.222;2023-03-12T02:48:06;100700.59;;;9.39;100.00
32324;BME280;25666;44.350;9.222;2023-03-12T02:50:32;100704.97;;;9.40;100.00
32324;BME280;25666;44.350;9.222;2023-03-12T02:52:58;100698.66;;;9.51;100.00
32324;BME280;25666;44.350;9.222;2023-03-12T02:55:23;100706.97;;;9.39;100.00
32324;BME280;25666;44.350;9.222;2023-03-12T02:57:49;100706.28;;;9.42;100.00
32324;BME280;25666;44.350;9.222;2023-03-12T03:00:15;100726.78;;;8.96;100.00
32324;BME280;25666;44.350;9.222;2023-03-12T03:02:48;100738.53;;;9.02;100.00
32324;BME280;25666;44.350;9.222;2023-03-12T03:05:14;100733.94;;;9.18;100.00
32324;BME280;25666;44.350;9.222;2023-03-12T03:07:40;100732.84;;;9.31;100.00
32324;BME280;25666;44.350;9.222;2023-03-12T03:10:06;100744.50;;;9.25;100.00
32324;BME280;25666;44.350;9.222;2023-03-12T03:12:34;100737.03;;;9.37;100.00
32324;BME280;25666;44.350;9.222;2023-03-12T03:15:01;100757.56;;;9.24;100.00
32324;BME280;25666;44.350;9.222;2023-03-12T03:17:27;100757.25;;;9.26;100.00
32324;BME280;25666;44.350;9.222;2023-03-12T03:19:52;100752.19;;;9.40;100.00
32324;BME280;25666;44.350;9.222;2023-03-12T03:22:19;100756.00;;;9.35;100.00
32324;BME280;25666;44.350;9.222;2023-03-12T03:24:45;100753.78;;;9.29;100.00
32324;BME280;25666;44.350;9.222;2023-03-12T03:27:11;100757.28;;;9.38;100.00
32324;BME280;25666;44.350;9.222;2023-03-12T03:29:41;100760.75;;;9.35;100.00
32324;BME280;25666;44.350;9.222;2023-03-12T03:32:07;100761.44;;;9.32;100.00
32324;BME280;25666;44.350;9.222;2023-03-12T03:34:32;100769.53;;;9.37;100.00
32324;BME280;25666;44.350;9.222;2023-03-12T03:36:59;100776.56;;;9.22;100.00
32324;BME280;25666;44.350;9.222;2023-03-12T03:39:24;100782.78;;;9.19;100.00
32324;BME280;25666;44.350;9.222;2023-03-12T03:41:50;100780.69;;;9.16;100.00
32324;BME280;25666;44.350;9.222;2023-03-12T03:44:18;100784.97;;;9.13;100.00
32324;BME280;25666;44.350;9.222;2023-03-12T03:46:44;100794.84;;;9.23;100.00
32324;BME280;25666;44.350;9.222;2023-03-12T03:49:11;100795.84;;;9.19;100.00
32324;BME280;25666;44.350;9.222;2023-03-12T03:51:39;100793.22;;;9.22;100.00
32324;BME280;25666;44.350;9.222;2023-03-12T03:54:11;100804.53;;;9.17;100.00
32324;BME280;25666;44.350;9.222;2023-03-12T03:56:39;100799.16;;;9.12;100.00
32324;BME280;25666;44.350;9.222;2023-03-12T03:59:05;100810.34;;;9.24;100.00
32324;BME280;25666;44.350;9.222;2023-03-12T04:01:33;100806.31;;;9.01;100.00
32324;BME280;25666;44.350;9.222;2023-03-12T04:04:00;100815.16;;;8.94;100.00
32324;BME280;25666;44.350;9.222;2023-03-12T04:06:26;100824.69;;;8.85;100.00
32324;BME280;25666;44.350;9.222;2023-03-12T04:08:55;100825.97;;;8.67;100.00
32324;BME280;25666;44.350;9.222;2023-03-12T04:11:23;100827.97;;;8.57;100.00
32324;BME280;25666;44.350;9.222;2023-03-12T04:13:48;100833.16;;;8.59;100.00
32324;BME280;25666;44.350;9.222;2023-03-12T04:16:16;100837.47;;;8.77;100.00
32324;BME280;25666;44.350;9.222;2023-03-12T04:18:43;100840.97;;;8.66;100.00
32324;BME280;25666;44.350;9.222;2023-03-12T04:21:12;100843.50;;;8.79;100.00
32324;BME280;25666;44.350;9.222;2023-03-12T04:23:39;100843.84;;;8.78;100.00
32324;BME280;25666;44.350;9.222;2023-03-12T04:26:06;100853.63;;;8.54;100.00
32324;BME280;25666;44.350;9.222;2023-03-12T04:28:34;100860.06;;;8.67;100.00
32324;BME280;25666;44.350;9.222;2023-03-12T04:31:02;100858.91;;;8.68;100.00
32324;BME280;25666;44.350;9.222;2023-03-12T04:33:36;100863.16;;;8.66;100.00
32324;BME280;25666;44.350;9.222;2023-03-12T04:36:03;100863.16;;;8.66;100.00
32324;BME280;25666;44.350;9.222;2023-03-12T04:38:29;100866.44;;;8.68;100.00
32324;BME280;25666;44.350;9.222;2023-03-12T04:43:27;100885.56;;;8.60;100.00
32324;BME280;25666;44.350;9.222;2023-03-12T04:45:54;100887.56;;;8.51;100.00
32324;BME280;25666;44.350;9.222;2023-03-12T04:48:19;100892.63;;;8.49;100.00
32324;BME280;25666;44.350;9.222;2023-03-12T04:50:49;100905.50;;;8.54;100.00
32324;BME280;25666;44.350;9.222;2023-03-12T04:53:14;100903.56;;;8.46;100.00
32324;BME280;25666;44.350;9.222;2023-03-12T04:55:41;100915.00;;;8.44;100.00
32324;BME280;25666;44.350;9.222;2023-03-12T04:58:07;100913.56;;;8.38;100.00
32324;BME280;25666;44.350;9.222;2023-03-12T05:00:34;100915.13;;;8.56;100.00
32324;BME280;25666;44.350;9.222;2023-03-12T05:03:00;100916.75;;;8.49;100.00
32324;BME280;25666;44.350;9.222;2023-03-12T05:05:26;100909.06;;;8.63;100.00
32324;BME280;25666;44.350;9.222;2023-03-12T05:07:51;100915.75;;;8.62;100.00
32324;BME280;25666;44.350;9.222;2023-03-12T05:10:17;100915.97;;;8.48;100.00
32324;BME280;25666;44.350;9.222;2023-03-12T05:12:43;100916.03;;;8.31;100.00
32324;BME280;25666;44.350;9.222;2023-03-12T05:15:09;100921.41;;;8.36;100.00
32324;BME280;25666;44.350;9.222;2023-03-12T05:17:34;100930.00;;;8.43;100.00
32324;BME280;25666;44.350;9.222;2023-03-12T05:20:00;100933.44;;;8.40;100.00
32324;BME280;25666;44.350;9.222;2023-03-12T05:22:26;100944.88;;;8.22;100.00
32324;BME280;25666;44.350;9.222;2023-03-12T05:24:52;100935.78;;;8.30;100.00
32324;BME280;25666;44.350;9.222;2023-03-12T05:27:18;100940.16;;;8.31;100.00
32324;BME280;25666;44.350;9.222;2023-03-12T05:29:44;100947.78;;;8.51;100.00
32324;BME280;25666;44.350;9.222;2023-03-12T05:32:09;100949.53;;;8.55;100.00
32324;BME280;25666;44.350;9.222;2023-03-12T05:34:35;100951.66;;;8.58;100.00
32324;BME280;25666;44.350;9.222;2023-03-12T05:37:01;100964.31;;;8.39;100.00
32324;BME280;25666;44.350;9.222;2023-03-12T05:39:28;100951.19;;;8.56;100.00
32324;BME280;25666;44.350;9.222;2023-03-12T05:41:57;100951.66;;;8.67;100.00
32324;BME280;25666;44.350;9.222;2023-03-12T05:44:25;100957.84;;;8.64;100.00
32324;BME280;25666;44.350;9.222;2023-03-12T05:46:53;100963.69;;;8.71;100.00
32324;BME280;25666;44.350;9.222;2023-03-12T05:49:21;100964.19;;;8.73;100.00
32324;BME280;25666;44.350;9.222;2023-03-12T05:51:47;100967.88;;;8.48;100.00
32324;BME280;25666;44.350;9.222;2023-03-12T05:54:14;100974.09;;;8.28;100.00
32324;BME280;25666;44.350;9.222;2023-03-12T05:56:41;100984.22;;;8.24;100.00
32324;BME280;25666;44.350;9.222;2023-03-12T05:59:07;100981.75;;;8.05;100.00
32324;BME280;25666;44.350;9.222;2023-03-12T06:01:35;100986.31;;;8.27;100.00
32324;BME280;25666;44.350;9.222;2023-03-12T06:04:02;100988.91;;;8.40;100.00
32324;BME280;25666;44.350;9.222;2023-03-12T06:06:33;100989.56;;;8.46;100.00
32324;BME280;25666;44.350;9.222;2023-03-12T06:08:58;100991.00;;;8.60;100.00
32324;BME280;25666;44.350;9.222;2023-03-12T06:11:24;100984.09;;;8.75;100.00
32324;BME280;25666;44.350;9.222;2023-03-12T06:13:50;100988.19;;;8.69;100.00
32324;BME280;25666;44.350;9.222;2023-03-12T06:16:18;101000.31;;;8.56;100.00
32324;BME280;25666;44.350;9.222;2023-03-12T06:18:44;100996.16;;;9.17;100.00
32324;BME280;25666;44.350;9.222;2023-03-12T06:21:15;100995.19;;;9.84;100.00
32324;BME280;25666;44.350;9.222;2023-03-12T06:23:43;100986.19;;;10.73;100.00
32324;BME280;25666;44.350;9.222;2023-03-12T06:26:13;100983.84;;;12.12;100.00
32324;BME280;25666;44.350;9.222;2023-03-12T06:28:39;100985.13;;;14.06;100.00
32324;BME280;25666;44.350;9.222;2023-03-12T06:31:05;100983.94;;;13.87;100.00
32324;BME280;25666;44.350;9.222;2023-03-12T06:33:31;100984.19;;;14.36;100.00
32324;BME280;25666;44.350;9.222;2023-03-12T06:35:59;100985.41;;;14.58;100.00
32324;BME280;25666;44.350;9.222;2023-03-12T06:38:25;100992.94;;;14.54;100.00
32324;BME280;25666;44.350;9.222;2023-03-12T06:41:01;101000.38;;;14.27;100.00
32324;BME280;25666;44.350;9.222;2023-03-12T06:43:29;101009.59;;;14.28;100.00
32324;BME280;25666;44.350;9.222;2023-03-12T06:45:57;101001.44;;;14.38;100.00
32324;BME280;25666;44.350;9.222;2023-03-12T06:48:24;101017.91;;;14.24;100.00
32324;BME280;25666;44.350;9.222;2023-03-12T06:50:50;101019.34;;;14.34;100.00
32324;BME280;25666;44.350;9.222;2023-03-12T06:53:16;101022.03;;;14.91;100.00
32324;BME280;25666;44.350;9.222;2023-03-12T06:55:43;101014.50;;;14.73;100.00
32324;BME280;25666;44.350;9.222;2023-03-12T06:58:09;101018.66;;;14.02;100.00
32324;BME280;25666;44.350;9.222;2023-03-12T07:00:34;101020.38;;;13.72;100.00
32324;BME280;25666;44.350;9.222;2023-03-12T07:03:00;101022.13;;;13.45;100.00
32324;BME280;25666;44.350;9.222;2023-03-12T07:05:25;101024.50;;;13.27;100.00
32324;BME280;25666;44.350;9.222;2023-03-12T07:07:51;101033.81;;;12.88;100.00
32324;BME280;25666;44.350;9.222;2023-03-12T07:10:17;101033.41;;;12.58;100.00
32324;BME280;25666;44.350;9.222;2023-03-12T07:12:43;101041.31;;;12.56;100.00
32324;BME280;25666;44.350;9.222;2023-03-12T07:15:10;101043.13;;;12.21;100.00
32324;BME280;25666;44.350;9.222;2023-03-12T07:17:36;101049.22;;;11.99;100.00
32324;BME280;25666;44.350;9.222;2023-03-12T07:20:02;101052.25;;;11.81;100.00
32324;BME280;25666;44.350;9.222;2023-03-12T07:22:27;101051.34;;;11.90;100.00
32324;BME280;25666;44.350;9.222;2023-03-12T07:24:53;101053.56;;;11.72;100.00
32324;BME280;25666;44.350;9.222;2023-03-12T07:27:18;101049.84;;;11.56;100.00
32324;BME280;25666;44.350;9.222;2023-03-12T07:29:44;101058.22;;;11.56;100.00
32324;BME280;25666;44.350;9.222;2023-03-12T07:32:10;101066.19;;;11.69;100.00
32324;BME280;25666;44.350;9.222;2023-03-12T07:34:36;101076.47;;;11.77;100.00
32324;BME280;25666;44.350;9.222;2023-03-12T07:37:02;101074.00;;;11.88;100.00
32324;BME280;25666;44.350;9.222;2023-03-12T07:39:28;101070.50;;;11.91;100.00
32324;BME280;25666;44.350;9.222;2023-03-12T07:41:53;101086.66;;;11.98;100.00
32324;BME280;25666;44.350;9.222;2023-03-12T07:44:19;101090.81;;;12.04;100.00
32324;BME280;25666;44.350;9.222;2023-03-12T07:46:44;101091.59;;;12.16;100.00
32324;BME280;25666;44.350;9.222;2023-03-12T07:49:10;101091.81;;;12.23;100.00
32324;BME280;25666;44.350;9.222;2023-03-12T07:51:36;101095.59;;;12.43;100.00
32324;BME280;25666;44.350;9.222;2023-03-12T07:54:01;101102.56;;;12.49;100.00
32324;BME280;25666;44.350;9.222;2023-03-12T07:56:27;101101.34;;;12.62;100.00
32324;BME280;25666;44.350;9.222;2023-03-12T07:58:52;101111.91;;;12.69;100.00
32324;BME280;25666;44.350;9.222;2023-03-12T08:01:18;101124.09;;;12.76;100.00
32324;BME280;25666;44.350;9.222;2023-03-12T08:03:43;101118.44;;;12.88;100.00
32324;BME280;25666;44.350;9.222;2023-03-12T08:06:09;101125.31;;;13.07;100.00
32324;BME280;25666;44.350;9.222;2023-03-12T08:08:35;101127.47;;;13.25;100.00
32324;BME280;25666;44.350;9.222;2023-03-12T08:11:03;101125.22;;;13.31;100.00
32324;BME280;25666;44.350;9.222;2023-03-12T08:13:29;101127.75;;;13.36;100.00
32324;BME280;25666;44.350;9.222;2023-03-12T08:15:55;101131.63;;;13.47;100.00
32324;BME280;25666;44.350;9.222;2023-03-12T08:18:22;101137.19;;;13.78;100.00
32324;BME280;25666;44.350;9.222;2023-03-12T08:20:49;101145.22;;;13.95;100.00
32324;BME280;25666;44.350;9.222;2023-03-12T08:23:16;101138.69;;;14.07;100.00
32324;BME280;25666;44.350;9.222;2023-03-12T08:25:44;101140.66;;;14.22;100.00
32324;BME280;25666;44.350;9.222;2023-03-12T08:28:11;101140.09;;;14.32;100.00
32324;BME280;25666;44.350;9.222;2023-03-12T08:30:36;101139.53;;;14.42;100.00
32324;BME280;25666;44.350;9.222;2023-03-12T08:33:02;101137.25;;;14.48;100.00
32324;BME280;25666;44.350;9.222;2023-03-12T08:35:27;101144.19;;;14.54;100.00
32324;BME280;25666;44.350;9.222;2023-03-12T08:37:53;101145.09;;;14.58;100.00
32324;BME280;25666;44.350;9.222;2023-03-12T08:40:22;101142.78;;;14.44;100.00
32324;BME280;25666;44.350;9.222;2023-03-12T08:42:48;101139.97;;;14.44;100.00
32324;BME280;25666;44.350;9.222;2023-03-12T08:45:13;101142.69;;;14.41;100.00
32324;BME280;25666;44.350;9.222;2023-03-12T08:47:40;101147.66;;;14.32;100.00
32324;BME280;25666;44.350;9.222;2023-03-12T08:50:07;101166.97;;;14.18;100.00
32324;BME280;25666;44.350;9.222;2023-03-12T08:52:33;101170.38;;;14.27;100.00
32324;BME280;25666;44.350;9.222;2023-03-12T08:54:58;101165.91;;;14.41;100.00
32324;BME280;25666;44.350;9.222;2023-03-12T08:57:24;101170.13;;;14.51;100.00
32324;BME280;25666;44.350;9.222;2023-03-12T08:59:49;101160.22;;;14.38;100.00
32324;BME280;25666;44.350;9.222;2023-03-12T09:02:15;101165.06;;;14.37;100.00
32324;BME280;25666;44.350;9.222;2023-03-12T09:04:40;101165.56;;;14.43;100.00
32324;BME280;25666;44.350;9.222;2023-03-12T09:07:06;101169.63;;;14.45;100.00
32324;BME280;25666;44.350;9.222;2023-03-12T09:09:31;101178.09;;;14.49;100.00
32324;BME280;25666;44.350;9.222;2023-03-12T09:11:57;101184.59;;;14.53;100.00
32324;BME280;25666;44.350;9.222;2023-03-12T09:14:22;101192.38;;;14.44;100.00
32324;BME280;25666;44.350;9.222;2023-03-12T09:16:48;101190.47;;;14.48;100.00
32324;BME280;25666;44.350;9.222;2023-03-12T09:19:14;101196.81;;;14.45;100.00
32324;BME280;25666;44.350;9.222;2023-03-12T09:21:40;101206.25;;;14.37;100.00
32324;BME280;25666;44.350;9.222;2023-03-12T09:24:05;101211.03;;;14.36;100.00
32324;BME280;25666;44.350;9.222;2023-03-12T09:26:31;101214.72;;;14.40;100.00
32324;BME280;25666;44.350;9.222;2023-03-12T09:28:57;101215.50;;;14.41;100.00
32324;BME280;25666;44.350;9.222;2023-03-12T09:31:24;101212.44;;;14.46;100.00
32324;BME280;25666;44.350;9.222;2023-03-12T09:33:50;101210.66;;;14.38;100.00
32324;BME280;25666;44.350;9.222;2023-03-12T09:36:15;101214.72;;;14.40;100.00
32324;BME280;25666;44.350;9.222;2023-03-12T09:38:41;101205.13;;;14.41;100.00
32324;BME280;25666;44.350;9.222;2023-03-12T09:41:16;101207.41;;;14.36;100.00
32324;BME280;25666;44.350;9.222;2023-03-12T09:44:01;101209.13;;;14.25;100.00
32324;BME280;25666;44.350;9.222;2023-03-12T09:52:02;101222.41;;;14.43;100.00
32324;BME280;25666;44.350;9.222;2023-03-12T09:54:48;101223.34;;;14.51;100.00
32324;BME280;25666;44.350;9.222;2023-03-12T09:57:21;101218.41;;;14.44;100.00
32324;BME280;25666;44.350;9.222;2023-03-12T09:59:49;101213.41;;;14.54;100.00
32324;BME280;25666;44.350;9.222;2023-03-12T10:02:50;101225.84;;;14.37;100.00
32324;BME280;25666;44.350;9.222;2023-03-12T10:05:37;101218.97;;;14.19;100.00
32324;BME280;25666;44.350;9.222;2023-03-12T10:08:28;101229.38;;;14.34;100.00
32324;BME280;25666;44.350;9.222;2023-03-12T10:14:23;101229.47;;;14.37;100.00
32324;BME280;25666;44.350;9.222;2023-03-12T10:20:02;101236.97;;;14.33;100.00
32324;BME280;25666;44.350;9.222;2023-03-12T10:25:52;101228.09;;;14.47;100.00
32324;BME280;25666;44.350;9.222;2023-03-12T10:28:26;101230.94;;;14.51;100.00
32324;BME280;25666;44.350;9.222;2023-03-12T10:30:58;101229.88;;;14.55;100.00
32324;BME280;25666;44.350;9.222;2023-03-12T10:33:36;101223.88;;;14.57;100.00
32324;BME280;25666;44.350;9.222;2023-03-12T10:36:36;101213.34;;;14.50;100.00
32324;BME280;25666;44.350;9.222;2023-03-12T10:39:04;101212.84;;;14.64;100.00
32324;BME280;25666;44.350;9.222;2023-03-12T10:41:31;101202.97;;;14.70;100.00
32324;BME280;25666;44.350;9.222;2023-03-12T10:44:05;101199.16;;;14.78;100.00
32324;BME280;25666;44.350;9.222;2023-03-12T10:46:49;101204.78;;;14.97;100.00
32324;BME280;25666;44.350;9.222;2023-03-12T10:51:59;101200.44;;;15.41;100.00
32324;BME280;25666;44.350;9.222;2023-03-12T10:54:48;101208.28;;;15.32;100.00
32324;BME280;25666;44.350;9.222;2023-03-12T10:57:17;101204.28;;;15.52;100.00
32324;BME280;25666;44.350;9.222;2023-03-12T10:59:44;101212.31;;;15.54;100.00
32324;BME280;25666;44.350;9.222;2023-03-12T11:02:33;101213.28;;;15.42;100.00
32324;BME280;25666;44.350;9.222;2023-03-12T11:05:00;101217.31;;;15.45;100.00
32324;BME280;25666;44.350;9.222;2023-03-12T11:07:32;101218.75;;;15.35;100.00
32324;BME280;25666;44.350;9.222;2023-03-12T11:12:33;101232.56;;;15.44;100.00
32324;BME280;25666;44.350;9.222;2023-03-12T11:15:28;101230.66;;;15.48;100.00
32324;BME280;25666;44.350;9.222;2023-03-12T11:18:29;101230.53;;;15.44;100.00
32324;BME280;25666;44.350;9.222;2023-03-12T11:23:38;101242.91;;;15.40;100.00
32324;BME280;25666;44.350;9.222;2023-03-12T11:28:46;101240.69;;;15.49;100.00
32324;BME280;25666;44.350;9.222;2023-03-12T11:31:22;101243.47;;;15.30;100.00
32324;BME280;25666;44.350;9.222;2023-03-12T11:33:51;101249.47;;;15.09;100.00
32324;BME280;25666;44.350;9.222;2023-03-12T11:39:35;101260.97;;;15.23;100.00
32324;BME280;25666;44.350;9.222;2023-03-12T11:47:43;101260.69;;;15.28;100.00
32324;BME280;25666;44.350;9.222;2023-03-12T11:53:18;101264.50;;;15.01;100.00
32324;BME280;25666;44.350;9.222;2023-03-12T11:55:57;101257.56;;;14.95;100.00
32324;BME280;25666;44.350;9.222;2023-03-12T12:09:33;101261.41;;;14.87;100.00
32324;BME280;25666;44.350;9.222;2023-03-12T12:36:12;101272.34;;;15.11;100.00
32324;BME280;25666;44.350;9.222;2023-03-12T12:43:43;101269.97;;;15.13;100.00
32324;BME280;25666;44.350;9.222;2023-03-12T12:46:20;101278.00;;;14.95;100.00
32324;BME280;25666;44.350;9.222;2023-03-12T12:48:54;101260.69;;;15.09;100.00
32324;BME280;25666;44.350;9.222;2023-03-12T12:51:32;101257.97;;;15.13;100.00
32324;BME280;25666;44.350;9.222;2023-03-12T12:57:10;101267.38;;;14.85;100.00
32324;BME280;25666;44.350;9.222;2023-03-12T12:59:41;101262.75;;;14.93;100.00
32324;BME280;25666;44.350;9.222;2023-03-12T13:02:16;101262.91;;;15.00;100.00
32324;BME280;25666;44.350;9.222;2023-03-12T13:04:44;101265.16;;;14.94;100.00
32324;BME280;25666;44.350;9.222;2023-03-12T13:12:14;101271.97;;;14.93;100.00
32324;BME280;25666;44.350;9.222;2023-03-12T13:14:43;101280.25;;;15.06;100.00
32324;BME280;25666;44.350;9.222;2023-03-12T13:19:57;101283.69;;;14.99;100.00
32324;BME280;25666;44.350;9.222;2023-03-12T13:22:30;101287.22;;;14.96;100.00
32324;BME280;25666;44.350;9.222;2023-03-12T13:25:20;101299.63;;;14.95;100.00
32324;BME280;25666;44.350;9.222;2023-03-12T13:28:00;101295.22;;;15.13;100.00
32324;BME280;25666;44.350;9.222;2023-03-12T13:45:32;101323.72;;;15.15;100.00
32324;BME280;25666;44.350;9.222;2023-03-12T13:48:01;101331.59;;;15.10;100.00
32324;BME280;25666;44.350;9.222;2023-03-12T13:50:28;101326.31;;;14.89;100.00
32324;BME280;25666;44.350;9.222;2023-03-12T13:53:05;101337.69;;;14.96;100.00
32324;BME280;25666;44.350;9.222;2023-03-12T13:55:34;101337.72;;;14.80;100.00
32324;BME280;25666;44.350;9.222;2023-03-12T13:58:07;101330.66;;;14.86;100.00
32324;BME280;25666;44.350;9.222;2023-03-12T14:00:55;101336.53;;;14.97;100.00
32324;BME280;25666;44.350;9.222;2023-03-12T14:03:28;101343.38;;;14.99;100.00
32324;BME280;25666;44.350;9.222;2023-03-12T14:06:11;101358.75;;;15.06;100.00
32324;BME280;25666;44.350;9.222;2023-03-12T14:09:18;101352.84;;;15.11;100.00
32324;BME280;25666;44.350;9.222;2023-03-12T14:11:59;101340.97;;;14.82;100.00
32324;BME280;25666;44.350;9.222;2023-03-12T14:17:17;101356.88;;;14.94;100.00
32324;BME280;25666;44.350;9.222;2023-03-12T14:19:51;101355.94;;;15.06;100.00
32324;BME280;25666;44.350;9.222;2023-03-12T14:22:21;101352.31;;;15.05;100.00
32324;BME280;25666;44.350;9.222;2023-03-12T14:25:22;101348.47;;;15.13;100.00
32324;BME280;25666;44.350;9.222;2023-03-12T14:27:45;101346.78;;;15.09;100.00
32324;BME280;25666;44.350;9.222;2023-03-12T14:30:22;101352.44;;;14.93;100.00
32324;BME280;25666;44.350;9.222;2023-03-12T14:32:51;101354.75;;;14.72;100.00
32324;BME280;25666;44.350;9.222;2023-03-12T14:35:24;101354.56;;;14.65;100.00
32324;BME280;25666;44.350;9.222;2023-03-12T14:37:59;101353.41;;;14.66;100.00
32324;BME280;25666;44.350;9.222;2023-03-12T14:40:37;101365.41;;;14.66;100.00
32324;BME280;25666;44.350;9.222;2023-03-12T14:43:19;101366.22;;;14.67;100.00
32324;BME280;25666;44.350;9.222;2023-03-12T14:45:45;101376.69;;;14.54;100.00